createdAt,value
2022-10-13T00:01:14.799Z,101757.09
2022-10-13T00:03:42.740Z,101751.78
2022-10-13T00:06:11.614Z,101754.06
2022-10-13T00:08:39.491Z,101757.03
2022-10-13T00:11:16.774Z,101749.66
2022-10-13T00:13:44.646Z,101752.63
2022-10-13T00:16:14.434Z,101749.44
2022-10-13T00:18:42.204Z,101751.81
2022-10-13T00:21:20.196Z,101755.97
2022-10-13T00:23:47.850Z,101754.00
2022-10-13T00:26:17.968Z,101760.38
2022-10-13T00:28:49.752Z,101768.88
2022-10-13T00:31:26.404Z,101763.28
2022-10-13T00:33:54.259Z,101751.53
2022-10-13T00:36:23.360Z,101754.13
2022-10-13T00:38:53.005Z,101748.59
2022-10-13T00:41:21.028Z,101748.59
2022-10-13T00:44:05.293Z,101754.22
2022-10-13T00:46:37.567Z,101745.38
2022-10-13T00:49:13.139Z,101747.81
2022-10-13T00:51:44.900Z,101744.25
2022-10-13T00:54:18.635Z,101736.22
2022-10-13T00:56:46.953Z,101737.38
2022-10-13T00:59:29.025Z,101741.63
2022-10-13T01:01:58.990Z,101731.97
2022-10-13T01:04:50.281Z,101736.78
2022-10-13T01:07:19.195Z,101731.75
2022-10-13T01:09:47.262Z,101736.28
2022-10-13T01:12:41.906Z,101739.66
2022-10-13T01:15:26.561Z,101732.25
2022-10-13T01:18:28.101Z,101730.47
2022-10-13T01:21:46.752Z,101728.53
2022-10-13T01:24:38.746Z,101731.00
2022-10-13T01:27:46.016Z,101724.28
2022-10-13T01:30:19.640Z,101720.38
2022-10-13T01:33:20.507Z,101720.91
2022-10-13T01:36:11.578Z,101714.56
2022-10-13T01:38:55.241Z,101721.00
2022-10-13T01:41:39.431Z,101722.09
2022-10-13T01:44:24.512Z,101714.50
2022-10-13T01:46:53.581Z,101711.91
2022-10-13T01:49:26.786Z,101715.00
2022-10-13T01:51:56.642Z,101706.47
2022-10-13T01:54:23.533Z,101709.38
2022-10-13T01:56:55.254Z,101703.94
2022-10-13T01:59:24.580Z,101688.34
2022-10-13T02:02:00.245Z,101687.47
2022-10-13T02:04:56.859Z,101693.19
2022-10-13T02:08:07.724Z,101685.72
2022-10-13T02:10:58.674Z,101677.00
2022-10-13T02:13:28.586Z,101688.47
2022-10-13T02:15:59.301Z,101673.88
2022-10-13T02:18:35.265Z,101673.38
2022-10-13T02:21:03.652Z,101671.34
2022-10-13T02:23:31.025Z,101662.44
2022-10-13T02:25:59.858Z,101661.88
2022-10-13T02:28:28.380Z,101650.88
2022-10-13T02:30:55.315Z,101652.44
2022-10-13T02:33:22.362Z,101649.47
2022-10-13T02:35:49.275Z,101638.66
2022-10-13T02:38:16.136Z,101652.59
2022-10-13T02:40:43.109Z,101652.91
2022-10-13T02:43:10.043Z,101649.53
2022-10-13T02:45:36.984Z,101645.41
2022-10-13T02:48:04.008Z,101646.72
2022-10-13T02:50:30.877Z,101646.94
2022-10-13T02:52:57.838Z,101656.00
2022-10-13T02:55:24.798Z,101655.06
2022-10-13T02:57:51.733Z,101641.47
2022-10-13T03:00:18.877Z,101647.97
2022-10-13T03:02:45.792Z,101647.94
2022-10-13T03:05:12.843Z,101658.69
2022-10-13T03:07:39.779Z,101649.16
2022-10-13T03:10:07.128Z,101649.66
2022-10-13T03:12:34.166Z,101652.56
2022-10-13T03:15:01.172Z,101652.44
2022-10-13T03:17:28.158Z,101651.75
2022-10-13T03:19:55.165Z,101657.66
2022-10-13T03:22:22.497Z,101649.53
2022-10-13T03:24:49.660Z,101651.38
2022-10-13T03:27:16.560Z,101650.06
2022-10-13T03:29:43.679Z,101646.47
2022-10-13T03:32:10.590Z,101643.63
2022-10-13T03:34:37.564Z,101641.66
2022-10-13T03:37:04.631Z,101642.31
2022-10-13T03:39:31.532Z,101647.22
2022-10-13T03:41:58.619Z,101631.47
2022-10-13T03:44:25.702Z,101626.72
2022-10-13T03:46:52.598Z,101627.66
2022-10-13T03:49:19.529Z,101632.91
2022-10-13T03:51:46.633Z,101630.66
2022-10-13T03:54:14.195Z,101620.03
2022-10-13T03:56:42.415Z,101610.22
2022-10-13T03:59:13.237Z,101610.94
2022-10-13T04:01:40.597Z,101606.75
2022-10-13T04:04:09.225Z,101600.59
2022-10-13T04:06:36.115Z,101599.91
2022-10-13T04:09:03.765Z,101604.25
2022-10-13T04:11:30.843Z,101608.34
2022-10-13T04:13:58.771Z,101607.31
2022-10-13T04:16:29.391Z,101610.63
2022-10-13T04:19:03.115Z,101610.09
2022-10-13T04:21:33.303Z,101611.13
2022-10-13T04:24:01.605Z,101601.53
2022-10-13T04:26:32.036Z,101607.50
2022-10-13T04:29:00.007Z,101616.09
2022-10-13T04:31:29.519Z,101604.81
2022-10-13T04:33:56.896Z,101596.72
2022-10-13T04:36:24.525Z,101600.44
2022-10-13T04:38:53.940Z,101610.28
2022-10-13T04:41:21.061Z,101598.25
2022-10-13T04:43:50.005Z,101585.25
2022-10-13T04:46:27.348Z,101586.91
2022-10-13T04:48:55.492Z,101591.44
2022-10-13T04:51:25.011Z,101587.97
2022-10-13T04:54:01.111Z,101593.31
2022-10-13T04:56:28.825Z,101584.25
2022-10-13T04:58:55.840Z,101584.91
2022-10-13T05:01:24.818Z,101574.38
2022-10-13T05:03:59.867Z,101582.13
2022-10-13T05:06:30.214Z,101581.84
2022-10-13T05:08:57.739Z,101582.66
2022-10-13T05:11:29.251Z,101587.63
2022-10-13T05:13:57.409Z,101574.78
2022-10-13T05:16:25.454Z,101583.38
2022-10-13T05:18:54.757Z,101574.16
2022-10-13T05:21:28.348Z,101581.06
2022-10-13T05:23:57.309Z,101575.22
2022-10-13T05:26:29.058Z,101580.31
2022-10-13T05:29:01.269Z,101571.97
2022-10-13T05:31:30.274Z,101575.59
2022-10-13T05:33:57.370Z,101571.53
2022-10-13T05:36:31.434Z,101561.69
2022-10-13T05:39:03.219Z,101561.50
2022-10-13T05:41:30.781Z,101560.09
2022-10-13T05:44:03.351Z,101566.22
2022-10-13T05:46:30.503Z,101548.84
2022-10-13T05:48:57.406Z,101554.75
2022-10-13T05:51:38.823Z,101545.41
2022-10-13T05:54:30.849Z,101541.41
2022-10-13T05:57:04.167Z,101534.53
2022-10-13T05:59:38.060Z,101543.56
2022-10-13T06:02:08.526Z,101535.00
2022-10-13T06:04:44.739Z,101527.97
2022-10-13T06:07:12.341Z,101532.94
2022-10-13T06:09:41.200Z,101543.91
2022-10-13T06:12:09.405Z,101533.97
2022-10-13T06:14:36.681Z,101526.91
2022-10-13T06:17:03.843Z,101525.00
2022-10-13T06:19:30.773Z,101527.44
2022-10-13T06:22:02.577Z,101527.53
2022-10-13T06:24:30.526Z,101525.34
2022-10-13T06:26:57.511Z,101534.63
2022-10-13T06:29:24.432Z,101530.53
2022-10-13T06:31:51.414Z,101529.19
2022-10-13T06:34:18.337Z,101522.34
2022-10-13T06:36:45.306Z,101534.03
2022-10-13T06:39:12.253Z,101514.91
2022-10-13T06:41:39.168Z,101523.94
2022-10-13T06:44:06.052Z,101516.75
2022-10-13T06:46:32.978Z,101527.56
2022-10-13T06:49:00.007Z,101519.38
2022-10-13T06:51:27.019Z,101515.97
2022-10-13T06:53:56.959Z,101511.75
2022-10-13T06:56:24.064Z,101517.31
2022-10-13T06:58:51.062Z,101509.06
2022-10-13T07:01:18.021Z,101522.91
2022-10-13T07:03:45.023Z,101517.41
2022-10-13T07:06:11.997Z,101516.56
2022-10-13T07:08:38.889Z,101521.47
2022-10-13T07:11:16.438Z,101514.63
2022-10-13T07:13:46.603Z,101522.03
2022-10-13T07:16:15.475Z,101525.88
2022-10-13T07:18:42.525Z,101524.31
2022-10-13T07:21:10.149Z,101525.00
2022-10-13T07:23:37.096Z,101521.50
2022-10-13T07:26:08.967Z,101520.38
2022-10-13T07:28:35.954Z,101523.31
2022-10-13T07:31:13.716Z,101525.53
2022-10-13T07:33:44.537Z,101522.25
2022-10-13T07:36:12.623Z,101521.03
2022-10-13T07:38:39.963Z,101517.13
2022-10-13T07:41:10.345Z,101527.94
2022-10-13T07:43:37.428Z,101524.19
2022-10-13T07:46:05.713Z,101527.09
2022-10-13T07:48:33.802Z,101523.91
2022-10-13T07:51:05.942Z,101522.50
2022-10-13T07:53:33.076Z,101524.97
2022-10-13T07:56:05.894Z,101541.25
2022-10-13T07:58:34.203Z,101529.63
2022-10-13T08:01:02.492Z,101517.78
2022-10-13T08:03:30.471Z,101511.72
2022-10-13T08:06:00.346Z,101521.94
2022-10-13T08:08:27.972Z,101521.75
2022-10-13T08:10:56.095Z,101512.66
2022-10-13T08:13:23.006Z,101507.47
2022-10-13T08:15:49.981Z,101505.28
2022-10-13T08:18:16.965Z,101519.00
2022-10-13T08:20:45.858Z,101511.69
2022-10-13T08:23:13.925Z,101509.44
2022-10-13T08:25:43.400Z,101508.75
2022-10-13T08:28:25.862Z,101500.41
2022-10-13T08:30:53.990Z,101502.66
2022-10-13T08:33:21.127Z,101506.25
2022-10-13T08:35:48.055Z,101490.06
2022-10-13T08:38:15.020Z,101492.84
2022-10-13T08:40:48.780Z,101487.72
2022-10-13T08:43:20.290Z,101486.47
2022-10-13T08:45:51.356Z,101482.38
2022-10-13T08:48:44.594Z,101487.28
2022-10-13T08:51:15.973Z,101486.75
2022-10-13T08:53:46.325Z,101484.19
2022-10-13T08:56:31.220Z,101491.00
2022-10-13T08:58:58.493Z,101487.72
2022-10-13T09:01:36.827Z,101485.34
2022-10-13T09:04:49.377Z,101484.78
2022-10-13T09:07:22.500Z,101487.09
2022-10-13T09:09:54.558Z,101476.41
2022-10-13T09:12:25.779Z,101479.75
2022-10-13T09:15:05.747Z,101483.63
2022-10-13T09:17:34.486Z,101474.53
2022-10-13T09:20:25.639Z,101471.91
2022-10-13T09:23:20.801Z,101476.13
2022-10-13T09:25:52.689Z,101480.13
2022-10-13T09:28:26.799Z,101488.19
2022-10-13T09:31:23.540Z,101486.72
2022-10-13T09:34:14.440Z,101479.97
2022-10-13T09:36:59.073Z,101486.56
2022-10-13T09:39:26.798Z,101493.06
2022-10-13T09:42:29.515Z,101494.06
2022-10-13T09:45:15.733Z,101495.59
2022-10-13T09:47:52.318Z,101494.78
2022-10-13T09:50:32.139Z,101494.88
2022-10-13T09:53:37.302Z,101493.13
2022-10-13T09:56:31.300Z,101493.78
2022-10-13T09:59:27.744Z,101494.63
2022-10-13T10:01:56.309Z,101498.16
2022-10-13T10:04:32.038Z,101491.66
2022-10-13T10:06:58.940Z,101493.22
2022-10-13T10:09:50.617Z,101485.94
2022-10-13T10:12:24.193Z,101494.97
2022-10-13T10:14:54.640Z,101492.53
2022-10-13T10:17:45.037Z,101509.03
2022-10-13T10:21:02.547Z,101511.34
2022-10-13T10:23:54.652Z,101496.06
2022-10-13T10:26:40.894Z,101490.34
2022-10-13T10:30:04.737Z,101500.72
2022-10-13T10:32:55.035Z,101502.53
2022-10-13T10:35:37.444Z,101498.75
2022-10-13T10:38:38.540Z,101503.13
2022-10-13T10:41:51.030Z,101504.28
2022-10-13T10:44:31.549Z,101505.22
2022-10-13T10:47:11.288Z,101506.22
2022-10-13T10:49:39.525Z,101504.56
2022-10-13T10:52:11.540Z,101507.38
2022-10-13T10:54:54.026Z,101492.34
2022-10-13T10:57:47.185Z,101494.28
2022-10-13T11:00:19.888Z,101491.56
2022-10-13T11:03:02.346Z,101481.03
2022-10-13T11:05:57.144Z,101477.97
2022-10-13T11:08:49.316Z,101473.22
2022-10-13T11:11:29.254Z,101483.78
2022-10-13T11:14:05.806Z,101485.44
2022-10-13T11:16:38.143Z,101487.91
2022-10-13T11:19:37.988Z,101493.69
2022-10-13T11:22:05.432Z,101500.75
2022-10-13T11:24:41.197Z,101486.56
2022-10-13T11:27:08.012Z,101480.72
2022-10-13T11:29:54.714Z,101475.69
2022-10-13T11:32:30.478Z,101480.03
2022-10-13T11:35:10.720Z,101472.91
2022-10-13T11:38:07.426Z,101485.06
2022-10-13T11:40:59.136Z,101470.31
2022-10-13T11:43:51.776Z,101458.28
2022-10-13T11:47:12.187Z,101464.59
2022-10-13T11:49:47.857Z,101470.41
2022-10-13T11:52:29.363Z,101468.91
2022-10-13T11:55:13.953Z,101474.88
2022-10-13T11:57:40.912Z,101468.00
2022-10-13T12:00:18.286Z,101465.97
2022-10-13T12:02:51.003Z,101461.91
2022-10-13T12:05:28.295Z,101464.03
2022-10-13T12:08:04.012Z,101467.44
2022-10-13T12:10:35.515Z,101455.78
2022-10-13T12:13:04.455Z,101445.44
2022-10-13T12:15:42.489Z,101462.22
2022-10-13T12:18:34.046Z,101442.28
2022-10-13T12:21:11.639Z,101449.09
2022-10-13T12:23:39.344Z,101443.88
2022-10-13T12:26:07.056Z,101440.22
2022-10-13T12:29:01.195Z,101438.66
2022-10-13T12:31:49.904Z,101440.13
2022-10-13T12:34:28.967Z,101441.13
2022-10-13T12:37:21.725Z,101437.91
2022-10-13T12:39:49.391Z,101440.88
2022-10-13T12:42:16.427Z,101436.00
2022-10-13T12:44:44.927Z,101443.53
2022-10-13T12:47:44.037Z,101437.38
2022-10-13T12:50:29.983Z,101435.34
2022-10-13T12:53:08.749Z,101436.88
2022-10-13T12:55:59.243Z,101432.34
2022-10-13T12:58:32.910Z,101418.25
2022-10-13T13:01:14.766Z,101439.75
2022-10-13T13:03:44.013Z,101433.41
2022-10-13T13:06:37.408Z,101446.19
2022-10-13T13:09:35.027Z,101433.78
2022-10-13T13:12:10.815Z,101439.91
2022-10-13T13:14:49.348Z,101438.34
2022-10-13T13:17:33.003Z,101438.47
2022-10-13T13:20:27.055Z,101431.00
2022-10-13T13:22:55.012Z,101434.66
2022-10-13T13:25:22.216Z,101427.19
2022-10-13T13:27:49.374Z,101427.53
2022-10-13T13:30:19.928Z,101429.72
2022-10-13T13:32:47.370Z,101424.34
2022-10-13T13:35:14.762Z,101428.34
2022-10-13T13:37:48.915Z,101422.25
2022-10-13T13:40:20.279Z,101403.38
2022-10-13T13:42:47.215Z,101404.00
2022-10-13T13:45:16.176Z,101403.56
2022-10-13T13:47:44.908Z,101395.59
2022-10-13T13:50:21.141Z,101403.91
2022-10-13T13:52:48.268Z,101400.75
2022-10-13T13:55:15.337Z,101394.06
2022-10-13T13:57:43.749Z,101402.47
2022-10-13T14:00:15.254Z,101399.00
2022-10-13T14:02:43.971Z,101399.72
2022-10-13T14:05:12.434Z,101399.00
2022-10-13T14:07:40.684Z,101392.56
2022-10-13T14:10:09.556Z,101395.91
2022-10-13T14:12:36.657Z,101387.72
2022-10-13T14:15:04.768Z,101397.44
2022-10-13T14:17:31.666Z,101388.59
2022-10-13T14:19:58.565Z,101386.72
2022-10-13T14:22:25.800Z,101384.56
2022-10-13T14:24:53.179Z,101384.47
2022-10-13T14:27:20.130Z,101377.13
2022-10-13T14:29:47.287Z,101379.28
2022-10-13T14:32:14.307Z,101376.25
2022-10-13T14:34:41.221Z,101388.69
2022-10-13T14:37:08.178Z,101384.25
2022-10-13T14:39:35.093Z,101393.63
2022-10-13T14:42:02.058Z,101391.69
2022-10-13T14:44:29.007Z,101377.44
2022-10-13T14:46:56.113Z,101379.28
2022-10-13T14:49:23.178Z,101373.41
2022-10-13T14:51:50.128Z,101379.81
2022-10-13T14:54:17.125Z,101371.25
2022-10-13T14:56:44.827Z,101372.09
2022-10-13T14:59:12.588Z,101358.19
2022-10-13T15:01:43.467Z,101353.97
2022-10-13T15:04:10.949Z,101380.38
2022-10-13T15:06:41.521Z,101361.91
2022-10-13T15:11:41.827Z,101373.69
2022-10-13T15:14:09.898Z,101371.72
2022-10-13T15:16:37.925Z,101374.03
2022-10-13T15:19:05.461Z,101364.81
2022-10-13T15:21:32.517Z,101376.19
2022-10-13T15:23:59.413Z,101380.50
2022-10-13T15:26:26.334Z,101379.78
2022-10-13T15:28:54.122Z,101377.81
2022-10-13T15:31:22.962Z,101385.97
2022-10-13T15:33:53.253Z,101392.75
2022-10-13T15:36:22.467Z,101391.41
2022-10-13T15:38:49.645Z,101393.03
2022-10-13T15:41:16.723Z,101386.38
2022-10-13T15:43:43.763Z,101398.78
2022-10-13T15:46:21.519Z,101371.19
2022-10-13T15:48:53.389Z,101378.41
2022-10-13T15:51:24.038Z,101385.63
2022-10-13T15:53:51.221Z,101373.84
2022-10-13T15:56:18.515Z,101372.56
2022-10-13T15:58:45.860Z,101381.44
2022-10-13T16:01:14.313Z,101369.13
2022-10-13T16:03:42.439Z,101380.31
2022-10-13T16:06:12.422Z,101376.00
2022-10-13T16:08:41.393Z,101363.53
2022-10-13T16:11:14.877Z,101377.78
2022-10-13T16:13:46.128Z,101366.09
2022-10-13T16:16:13.178Z,101376.28
2022-10-13T16:18:41.221Z,101374.13
2022-10-13T16:21:18.839Z,101374.44
2022-10-13T16:23:47.824Z,101352.25
2022-10-13T16:26:17.391Z,101368.28
2022-10-13T16:28:45.769Z,101365.94
2022-10-13T16:31:15.403Z,101373.41
2022-10-13T16:33:44.120Z,101373.91
2022-10-13T16:36:15.392Z,101368.09
2022-10-13T16:38:44.102Z,101370.69
2022-10-13T16:41:15.786Z,101368.63
2022-10-13T16:43:44.901Z,101374.78
2022-10-13T16:46:14.476Z,101383.78
2022-10-13T16:48:43.078Z,101374.25
2022-10-13T16:51:22.800Z,101381.75
2022-10-13T16:53:52.663Z,101383.56
2022-10-13T16:56:23.858Z,101395.53
2022-10-13T16:58:57.659Z,101389.03
2022-10-13T17:01:29.660Z,101392.78
2022-10-13T17:03:57.680Z,101383.16
2022-10-13T17:06:27.816Z,101380.78
2022-10-13T17:08:57.598Z,101390.59
2022-10-13T17:11:29.947Z,101392.25
2022-10-13T17:13:59.414Z,101379.41
2022-10-13T17:16:27.079Z,101385.19
2022-10-13T17:18:55.069Z,101387.38
2022-10-13T17:21:22.268Z,101391.66
2022-10-13T17:23:49.825Z,101387.44
2022-10-13T17:26:18.480Z,101393.91
2022-10-13T17:28:45.885Z,101390.13
2022-10-13T17:31:23.106Z,101395.41
2022-10-13T17:33:51.437Z,101406.97
2022-10-13T17:36:25.427Z,101411.22
2022-10-13T17:38:55.120Z,101415.28
2022-10-13T17:41:23.829Z,101412.25
2022-10-13T17:43:52.141Z,101416.63
2022-10-13T17:46:36.157Z,101417.16
2022-10-13T17:49:05.146Z,101423.78
2022-10-13T17:51:32.069Z,101420.09
2022-10-13T17:54:00.539Z,101420.75
2022-10-13T17:56:28.232Z,101420.31
2022-10-13T17:58:55.460Z,101425.59
2022-10-13T18:01:29.179Z,101415.53
2022-10-13T18:04:00.176Z,101406.09
2022-10-13T18:06:38.463Z,101388.16
2022-10-13T18:09:18.757Z,101410.91
2022-10-13T18:11:50.653Z,101411.94
2022-10-13T18:14:24.689Z,101408.31
2022-10-13T18:16:52.815Z,101408.47
2022-10-13T18:19:21.556Z,101402.09
2022-10-13T18:21:49.312Z,101410.69
2022-10-13T18:24:16.644Z,101405.84
2022-10-13T18:26:43.633Z,101411.41
2022-10-13T18:29:14.099Z,101408.09
2022-10-13T18:31:41.874Z,101413.34
2022-10-13T18:34:14.250Z,101409.25
2022-10-13T18:36:50.755Z,101406.44
2022-10-13T18:39:27.039Z,101392.94
2022-10-13T18:41:56.317Z,101396.31
2022-10-13T18:44:24.148Z,101390.25
2022-10-13T18:46:52.986Z,101382.31
2022-10-13T18:49:30.854Z,101380.47
2022-10-13T18:51:59.782Z,101380.63
2022-10-13T18:54:28.277Z,101378.91
2022-10-13T18:56:55.270Z,101386.63
2022-10-13T18:59:22.263Z,101390.91
2022-10-13T19:01:49.983Z,101397.97
2022-10-13T19:04:19.265Z,101391.91
2022-10-13T19:06:46.537Z,101411.91
2022-10-13T19:09:16.012Z,101405.78
2022-10-13T19:11:43.011Z,101418.84
2022-10-13T19:14:13.636Z,101418.16
2022-10-13T19:16:43.737Z,101425.97
2022-10-13T19:19:11.427Z,101423.94
2022-10-13T19:21:39.332Z,101422.28
2022-10-13T19:24:07.823Z,101418.06
2022-10-13T19:26:36.822Z,101419.63
2022-10-13T19:29:08.639Z,101414.56
2022-10-13T19:31:37.455Z,101411.84
2022-10-13T19:34:04.813Z,101414.72
2022-10-13T19:36:37.588Z,101407.31
2022-10-13T19:39:21.725Z,101428.59
2022-10-13T19:41:51.457Z,101417.66
2022-10-13T19:44:20.150Z,101407.69
2022-10-13T19:46:48.320Z,101406.06
2022-10-13T19:49:18.429Z,101404.53
2022-10-13T19:51:47.148Z,101412.16
2022-10-13T19:54:14.814Z,101394.97
2022-10-13T19:56:41.727Z,101400.75
2022-10-13T19:59:08.827Z,101405.00
2022-10-13T20:01:40.026Z,101396.97
2022-10-13T20:04:10.737Z,101403.56
2022-10-13T20:06:37.827Z,101397.72
2022-10-13T20:09:05.868Z,101392.72
2022-10-13T20:11:32.846Z,101385.97
2022-10-13T20:13:59.833Z,101395.84
2022-10-13T20:16:26.859Z,101398.28
2022-10-13T20:19:00.270Z,101398.13
2022-10-13T20:21:28.266Z,101393.63
2022-10-13T20:23:56.229Z,101398.72
2022-10-13T20:26:24.824Z,101398.19
2022-10-13T20:28:53.391Z,101397.53
2022-10-13T20:31:22.020Z,101389.19
2022-10-13T20:33:56.456Z,101380.28
2022-10-13T20:36:25.557Z,101379.25
2022-10-13T20:38:52.815Z,101386.16
2022-10-13T20:41:29.518Z,101399.44
2022-10-13T20:44:01.413Z,101392.63
2022-10-13T20:46:28.345Z,101400.09
2022-10-13T20:49:12.985Z,101393.75
2022-10-13T20:51:42.700Z,101386.22
2022-10-13T20:54:14.451Z,101372.69
2022-10-13T20:56:41.841Z,101369.91
2022-10-13T20:59:12.532Z,101369.78
2022-10-13T21:01:39.692Z,101378.38
2022-10-13T21:04:07.100Z,101385.25
2022-10-13T21:06:35.697Z,101391.53
2022-10-13T21:09:04.618Z,101388.72
2022-10-13T21:11:31.719Z,101382.47
2022-10-13T21:13:58.764Z,101377.09
2022-10-13T21:16:29.174Z,101379.69
2022-10-13T21:18:57.929Z,101377.38
2022-10-13T21:21:31.769Z,101374.84
2022-10-13T21:24:06.117Z,101373.78
2022-10-13T21:26:33.674Z,101368.78
2022-10-13T21:29:02.318Z,101377.97
2022-10-13T21:31:30.038Z,101378.31
2022-10-13T21:33:57.781Z,101377.84
2022-10-13T21:36:32.473Z,101378.72
2022-10-13T21:39:03.854Z,101379.84
2022-10-13T21:41:31.286Z,101372.44
2022-10-13T21:43:58.465Z,101381.28
2022-10-13T21:46:31.176Z,101386.56
2022-10-13T21:49:01.144Z,101389.69
2022-10-13T21:51:34.669Z,101388.09
2022-10-13T21:54:06.036Z,101389.88
2022-10-13T21:56:34.040Z,101394.06
2022-10-13T21:59:01.741Z,101380.03
2022-10-13T22:01:28.881Z,101380.34
2022-10-13T22:03:58.340Z,101380.53
2022-10-13T22:06:26.531Z,101387.69
2022-10-13T22:08:56.240Z,101382.69
2022-10-13T22:11:26.502Z,101370.75
2022-10-13T22:13:53.508Z,101369.41
2022-10-13T22:16:24.635Z,101361.81
2022-10-13T22:18:53.458Z,101357.16
2022-10-13T22:21:27.341Z,101362.34
2022-10-13T22:24:05.275Z,101357.28
2022-10-13T22:26:35.624Z,101366.91
2022-10-13T22:29:06.097Z,101367.41
2022-10-13T22:31:33.339Z,101358.34
2022-10-13T22:34:01.687Z,101359.69
2022-10-13T22:36:30.892Z,101354.66
2022-10-13T22:39:01.231Z,101351.47
2022-10-13T22:41:28.686Z,101355.03
2022-10-13T22:43:57.964Z,101354.34
2022-10-13T22:46:29.712Z,101349.22
2022-10-13T22:48:58.096Z,101354.06
2022-10-13T22:51:28.453Z,101359.75
2022-10-13T22:53:57.730Z,101359.03
2022-10-13T22:56:28.243Z,101357.47
2022-10-13T22:59:04.937Z,101338.28
2022-10-13T23:01:31.929Z,101341.88
2022-10-13T23:03:59.777Z,101339.47
2022-10-13T23:06:31.420Z,101336.06
2022-10-13T23:09:04.554Z,101335.25
2022-10-13T23:11:31.818Z,101326.84
2022-10-13T23:13:58.758Z,101317.72
2022-10-13T23:16:26.613Z,101329.34
2022-10-13T23:18:54.458Z,101334.72
2022-10-13T23:21:23.477Z,101326.16
2022-10-13T23:23:59.858Z,101327.97
2022-10-13T23:26:27.556Z,101335.81
2022-10-13T23:28:56.780Z,101324.47
2022-10-13T23:31:24.605Z,101319.44
2022-10-13T23:33:51.883Z,101311.03
2022-10-13T23:36:23.398Z,101314.41
2022-10-13T23:38:56.015Z,101291.44
2022-10-13T23:41:23.629Z,101286.34
2022-10-13T23:43:50.646Z,101267.44
2022-10-13T23:46:17.613Z,101279.78
2022-10-13T23:48:44.562Z,101284.28
2022-10-13T23:51:16.466Z,101283.69
2022-10-13T23:53:43.807Z,101275.59
2022-10-13T23:56:12.927Z,101277.31
2022-10-13T23:58:42.610Z,101248.28
